sensor_id;sensor_type;location;lat;lon;timestamp;temperature;humidity
73572;DHT22;61854;48.510;-2.770;2023-06-04T00:01:08;15.30;89.40
73572;DHT22;61854;48.510;-2.770;2023-06-04T00:03:34;15.40;89.60
73572;DHT22;61854;48.510;-2.770;2023-06-04T00:05:59;15.40;89.50
73572;DHT22;61854;48.510;-2.770;2023-06-04T00:08:25;15.40;89.40
73572;DHT22;61854;48.510;-2.770;2023-06-04T00:10:51;15.30;89.50
73572;DHT22;61854;48.510;-2.770;2023-06-04T00:13:16;15.30;89.60
73572;DHT22;61854;48.510;-2.770;2023-06-04T00:15:42;15.30;89.70
73572;DHT22;61854;48.510;-2.770;2023-06-04T00:18:08;15.30;89.90
73572;DHT22;61854;48.510;-2.770;2023-06-04T00:20:33;15.30;90.00
73572;DHT22;61854;48.510;-2.770;2023-06-04T00:22:59;15.30;90.00
73572;DHT22;61854;48.510;-2.770;2023-06-04T00:25:24;15.20;90.00
73572;DHT22;61854;48.510;-2.770;2023-06-04T00:27:51;15.20;90.00
73572;DHT22;61854;48.510;-2.770;2023-06-04T00:30:16;15.20;90.10
73572;DHT22;61854;48.510;-2.770;2023-06-04T00:32:42;15.20;90.20
73572;DHT22;61854;48.510;-2.770;2023-06-04T00:35:08;15.20;90.30
73572;DHT22;61854;48.510;-2.770;2023-06-04T00:37:34;15.10;90.40
73572;DHT22;61854;48.510;-2.770;2023-06-04T00:40:00;15.10;90.50
73572;DHT22;61854;48.510;-2.770;2023-06-04T00:42:25;15.10;90.60
73572;DHT22;61854;48.510;-2.770;2023-06-04T00:44:51;15.00;90.70
73572;DHT22;61854;48.510;-2.770;2023-06-04T00:47:17;15.00;90.70
73572;DHT22;61854;48.510;-2.770;2023-06-04T00:49:43;15.10;90.90
73572;DHT22;61854;48.510;-2.770;2023-06-04T00:52:10;15.00;90.90
73572;DHT22;61854;48.510;-2.770;2023-06-04T00:54:36;15.00;91.00
73572;DHT22;61854;48.510;-2.770;2023-06-04T00:57:02;15.00;91.10
73572;DHT22;61854;48.510;-2.770;2023-06-04T00:59:28;15.00;91.10
73572;DHT22;61854;48.510;-2.770;2023-06-04T01:01:57;15.00;91.10
73572;DHT22;61854;48.510;-2.770;2023-06-04T01:04:25;15.00;91.20
73572;DHT22;61854;48.510;-2.770;2023-06-04T01:06:53;15.00;91.20
73572;DHT22;61854;48.510;-2.770;2023-06-04T01:09:21;15.00;91.20
73572;DHT22;61854;48.510;-2.770;2023-06-04T01:11:47;14.90;91.20
73572;DHT22;61854;48.510;-2.770;2023-06-04T01:14:12;15.00;91.30
73572;DHT22;61854;48.510;-2.770;2023-06-04T01:19:57;14.90;91.30
73572;DHT22;61854;48.510;-2.770;2023-06-04T01:21:55;14.90;91.40
73572;DHT22;61854;48.510;-2.770;2023-06-04T01:24:26;14.90;91.40
73572;DHT22;61854;48.510;-2.770;2023-06-04T01:26:53;14.90;91.40
73572;DHT22;61854;48.510;-2.770;2023-06-04T01:29:21;14.90;91.50
73572;DHT22;61854;48.510;-2.770;2023-06-04T01:31:49;14.90;91.50
73572;DHT22;61854;48.510;-2.770;2023-06-04T01:34:15;14.90;91.50
73572;DHT22;61854;48.510;-2.770;2023-06-04T01:36:40;14.90;91.60
73572;DHT22;61854;48.510;-2.770;2023-06-04T01:39:06;14.80;91.60
73572;DHT22;61854;48.510;-2.770;2023-06-04T01:41:31;14.80;91.60
73572;DHT22;61854;48.510;-2.770;2023-06-04T01:43:57;14.80;91.60
73572;DHT22;61854;48.510;-2.770;2023-06-04T01:46:22;14.80;91.70
73572;DHT22;61854;48.510;-2.770;2023-06-04T01:48:48;14.80;91.70
73572;DHT22;61854;48.510;-2.770;2023-06-04T01:51:14;14.80;91.70
73572;DHT22;61854;48.510;-2.770;2023-06-04T01:53:39;14.70;91.80
73572;DHT22;61854;48.510;-2.770;2023-06-04T01:56:05;14.70;91.90
73572;DHT22;61854;48.510;-2.770;2023-06-04T01:58:32;14.70;91.90
73572;DHT22;61854;48.510;-2.770;2023-06-04T02:00:59;14.70;91.90
73572;DHT22;61854;48.510;-2.770;2023-06-04T02:03:26;14.70;92.00
73572;DHT22;61854;48.510;-2.770;2023-06-04T02:05:51;14.70;92.10
73572;DHT22;61854;48.510;-2.770;2023-06-04T02:08:17;14.70;92.10
73572;DHT22;61854;48.510;-2.770;2023-06-04T02:10:46;14.70;92.10
73572;DHT22;61854;48.510;-2.770;2023-06-04T02:13:12;14.70;92.10
73572;DHT22;61854;48.510;-2.770;2023-06-04T02:15:38;14.70;92.20
73572;DHT22;61854;48.510;-2.770;2023-06-04T02:18:16;14.70;92.20
73572;DHT22;61854;48.510;-2.770;2023-06-04T02:20:43;14.60;92.30
73572;DHT22;61854;48.510;-2.770;2023-06-04T02:23:09;14.60;92.40
73572;DHT22;61854;48.510;-2.770;2023-06-04T02:25:34;14.60;92.60
73572;DHT22;61854;48.510;-2.770;2023-06-04T02:28:00;14.60;92.60
73572;DHT22;61854;48.510;-2.770;2023-06-04T02:30:26;14.60;92.60
73572;DHT22;61854;48.510;-2.770;2023-06-04T02:32:51;14.60;92.60
73572;DHT22;61854;48.510;-2.770;2023-06-04T02:35:17;14.60;92.60
73572;DHT22;61854;48.510;-2.770;2023-06-04T02:37:48;14.60;92.70
73572;DHT22;61854;48.510;-2.770;2023-06-04T02:40:14;14.60;92.70
73572;DHT22;61854;48.510;-2.770;2023-06-04T02:42:39;14.60;92.90
73572;DHT22;61854;48.510;-2.770;2023-06-04T02:45:05;14.60;93.00
73572;DHT22;61854;48.510;-2.770;2023-06-04T02:47:31;14.60;93.00
73572;DHT22;61854;48.510;-2.770;2023-06-04T02:49:56;14.60;93.40
73572;DHT22;61854;48.510;-2.770;2023-06-04T02:52:21;14.60;93.00
73572;DHT22;61854;48.510;-2.770;2023-06-04T02:54:48;14.60;93.10
73572;DHT22;61854;48.510;-2.770;2023-06-04T02:57:13;14.60;93.10
73572;DHT22;61854;48.510;-2.770;2023-06-04T02:59:39;14.60;93.20
73572;DHT22;61854;48.510;-2.770;2023-06-04T03:02:05;14.60;93.20
73572;DHT22;61854;48.510;-2.770;2023-06-04T03:04:30;14.50;93.20
73572;DHT22;61854;48.510;-2.770;2023-06-04T03:07:00;14.50;93.40
73572;DHT22;61854;48.510;-2.770;2023-06-04T03:09:26;14.50;93.40
73572;DHT22;61854;48.510;-2.770;2023-06-04T03:11:51;14.50;93.40
73572;DHT22;61854;48.510;-2.770;2023-06-04T03:14:17;14.50;93.40
73572;DHT22;61854;48.510;-2.770;2023-06-04T03:16:43;14.50;93.40
73572;DHT22;61854;48.510;-2.770;2023-06-04T03:19:10;14.40;93.40
73572;DHT22;61854;48.510;-2.770;2023-06-04T03:21:36;14.40;93.50
73572;DHT22;61854;48.510;-2.770;2023-06-04T03:24:05;14.40;93.60
73572;DHT22;61854;48.510;-2.770;2023-06-04T03:26:30;14.40;93.70
73572;DHT22;61854;48.510;-2.770;2023-06-04T03:28:56;14.40;93.60
73572;DHT22;61854;48.510;-2.770;2023-06-04T03:31:22;14.40;93.70
73572;DHT22;61854;48.510;-2.770;2023-06-04T03:33:47;14.40;93.80
73572;DHT22;61854;48.510;-2.770;2023-06-04T03:36:12;14.40;93.70
73572;DHT22;61854;48.510;-2.770;2023-06-04T03:38:38;14.30;93.70
73572;DHT22;61854;48.510;-2.770;2023-06-04T03:41:03;14.30;93.80
73572;DHT22;61854;48.510;-2.770;2023-06-04T03:43:29;14.30;93.90
73572;DHT22;61854;48.510;-2.770;2023-06-04T03:45:54;14.30;94.00
73572;DHT22;61854;48.510;-2.770;2023-06-04T03:48:20;14.30;94.10
73572;DHT22;61854;48.510;-2.770;2023-06-04T03:50:45;14.30;94.10
73572;DHT22;61854;48.510;-2.770;2023-06-04T03:53:11;14.30;94.10
73572;DHT22;61854;48.510;-2.770;2023-06-04T03:55:37;14.30;94.10
73572;DHT22;61854;48.510;-2.770;2023-06-04T03:58:02;14.20;94.20
73572;DHT22;61854;48.510;-2.770;2023-06-04T04:00:28;14.20;94.30
73572;DHT22;61854;48.510;-2.770;2023-06-04T04:02:53;14.20;94.30
73572;DHT22;61854;48.510;-2.770;2023-06-04T04:05:19;14.20;94.40
73572;DHT22;61854;48.510;-2.770;2023-06-04T04:07:45;14.20;94.50
73572;DHT22;61854;48.510;-2.770;2023-06-04T04:10:12;14.20;94.50
73572;DHT22;61854;48.510;-2.770;2023-06-04T04:12:38;14.20;94.60
73572;DHT22;61854;48.510;-2.770;2023-06-04T04:15:04;14.20;94.70
73572;DHT22;61854;48.510;-2.770;2023-06-04T04:17:29;14.20;94.80
73572;DHT22;61854;48.510;-2.770;2023-06-04T04:19:55;14.20;94.90
73572;DHT22;61854;48.510;-2.770;2023-06-04T04:22:20;14.20;94.90
73572;DHT22;61854;48.510;-2.770;2023-06-04T04:24:46;14.10;95.00
73572;DHT22;61854;48.510;-2.770;2023-06-04T04:27:12;14.20;95.00
73572;DHT22;61854;48.510;-2.770;2023-06-04T04:29:37;14.20;95.10
73572;DHT22;61854;48.510;-2.770;2023-06-04T04:32:03;14.20;95.20
73572;DHT22;61854;48.510;-2.770;2023-06-04T04:34:35;14.20;95.20
73572;DHT22;61854;48.510;-2.770;2023-06-04T04:37:03;14.10;95.70
73572;DHT22;61854;48.510;-2.770;2023-06-04T04:39:28;14.10;95.70
73572;DHT22;61854;48.510;-2.770;2023-06-04T04:41:54;14.20;95.30
73572;DHT22;61854;48.510;-2.770;2023-06-04T04:44:20;14.10;95.40
73572;DHT22;61854;48.510;-2.770;2023-06-04T04:46:47;14.10;95.40
73572;DHT22;61854;48.510;-2.770;2023-06-04T04:49:13;14.10;95.50
73572;DHT22;61854;48.510;-2.770;2023-06-04T04:51:38;14.20;95.50
73572;DHT22;61854;48.510;-2.770;2023-06-04T04:54:04;14.20;95.60
73572;DHT22;61854;48.510;-2.770;2023-06-04T04:56:32;14.20;95.70
73572;DHT22;61854;48.510;-2.770;2023-06-04T04:58:58;14.30;95.70
73572;DHT22;61854;48.510;-2.770;2023-06-04T05:01:23;14.30;95.80
73572;DHT22;61854;48.510;-2.770;2023-06-04T05:03:50;14.30;96.00
73572;DHT22;61854;48.510;-2.770;2023-06-04T05:06:16;14.40;96.20
73572;DHT22;61854;48.510;-2.770;2023-06-04T05:08:41;14.40;96.20
73572;DHT22;61854;48.510;-2.770;2023-06-04T05:11:07;14.50;96.30
73572;DHT22;61854;48.510;-2.770;2023-06-04T05:13:33;14.50;96.20
73572;DHT22;61854;48.510;-2.770;2023-06-04T05:15:58;14.50;96.20
73572;DHT22;61854;48.510;-2.770;2023-06-04T05:18:25;14.50;96.30
73572;DHT22;61854;48.510;-2.770;2023-06-04T05:20:54;14.60;96.40
73572;DHT22;61854;48.510;-2.770;2023-06-04T05:23:19;14.60;96.30
73572;DHT22;61854;48.510;-2.770;2023-06-04T05:25:46;14.60;96.30
73572;DHT22;61854;48.510;-2.770;2023-06-04T05:28:14;14.80;96.50
73572;DHT22;61854;48.510;-2.770;2023-06-04T05:30:40;15.00;96.20
73572;DHT22;61854;48.510;-2.770;2023-06-04T05:33:07;15.20;95.40
73572;DHT22;61854;48.510;-2.770;2023-06-04T05:35:46;15.40;95.00
73572;DHT22;61854;48.510;-2.770;2023-06-04T05:38:11;15.60;94.10
73572;DHT22;61854;48.510;-2.770;2023-06-04T05:40:43;15.60;93.50
73572;DHT22;61854;48.510;-2.770;2023-06-04T05:43:08;15.60;93.40
73572;DHT22;61854;48.510;-2.770;2023-06-04T05:45:34;15.70;93.30
73572;DHT22;61854;48.510;-2.770;2023-06-04T05:47:59;15.80;92.70
73572;DHT22;61854;48.510;-2.770;2023-06-04T05:50:25;16.00;92.20
73572;DHT22;61854;48.510;-2.770;2023-06-04T05:52:51;16.20;91.80
73572;DHT22;61854;48.510;-2.770;2023-06-04T05:55:16;16.30;91.20
73572;DHT22;61854;48.510;-2.770;2023-06-04T05:57:42;16.30;90.80
73572;DHT22;61854;48.510;-2.770;2023-06-04T06:00:07;16.10;90.80
73572;DHT22;61854;48.510;-2.770;2023-06-04T06:02:36;16.10;91.00
73572;DHT22;61854;48.510;-2.770;2023-06-04T06:05:03;16.00;91.20
73572;DHT22;61854;48.510;-2.770;2023-06-04T06:07:28;15.90;91.30
73572;DHT22;61854;48.510;-2.770;2023-06-04T06:09:54;15.90;91.40
73572;DHT22;61854;48.510;-2.770;2023-06-04T06:12:19;15.80;91.60
73572;DHT22;61854;48.510;-2.770;2023-06-04T06:14:45;15.80;91.70
73572;DHT22;61854;48.510;-2.770;2023-06-04T06:17:10;15.80;91.70
73572;DHT22;61854;48.510;-2.770;2023-06-04T06:19:36;15.80;91.70
73572;DHT22;61854;48.510;-2.770;2023-06-04T06:22:02;15.90;91.80
73572;DHT22;61854;48.510;-2.770;2023-06-04T06:24:29;15.90;91.90
73572;DHT22;61854;48.510;-2.770;2023-06-04T06:26:54;15.90;91.80
73572;DHT22;61854;48.510;-2.770;2023-06-04T06:29:20;15.90;91.80
73572;DHT22;61854;48.510;-2.770;2023-06-04T06:31:46;16.00;91.80
73572;DHT22;61854;48.510;-2.770;2023-06-04T06:34:12;16.00;91.80
73572;DHT22;61854;48.510;-2.770;2023-06-04T06:36:37;15.90;92.00
73572;DHT22;61854;48.510;-2.770;2023-06-04T06:39:03;15.90;92.40
73572;DHT22;61854;48.510;-2.770;2023-06-04T06:41:28;16.00;92.30
73572;DHT22;61854;48.510;-2.770;2023-06-04T06:43:56;16.00;92.20
73572;DHT22;61854;48.510;-2.770;2023-06-04T06:46:22;16.00;92.20
73572;DHT22;61854;48.510;-2.770;2023-06-04T06:48:47;16.00;92.30
73572;DHT22;61854;48.510;-2.770;2023-06-04T06:51:13;16.10;92.10
73572;DHT22;61854;48.510;-2.770;2023-06-04T06:53:39;16.10;92.00
73572;DHT22;61854;48.510;-2.770;2023-06-04T06:56:05;16.10;92.00
73572;DHT22;61854;48.510;-2.770;2023-06-04T06:58:30;16.10;92.10
73572;DHT22;61854;48.510;-2.770;2023-06-04T07:00:56;16.10;92.10
73572;DHT22;61854;48.510;-2.770;2023-06-04T07:03:21;16.20;92.20
73572;DHT22;61854;48.510;-2.770;2023-06-04T07:05:47;16.20;92.20
73572;DHT22;61854;48.510;-2.770;2023-06-04T07:08:12;16.30;91.80
73572;DHT22;61854;48.510;-2.770;2023-06-04T07:10:38;16.40;91.90
73572;DHT22;61854;48.510;-2.770;2023-06-04T07:13:03;16.40;91.80
73572;DHT22;61854;48.510;-2.770;2023-06-04T07:15:29;16.40;92.00
73572;DHT22;61854;48.510;-2.770;2023-06-04T07:17:55;16.30;91.70
73572;DHT22;61854;48.510;-2.770;2023-06-04T07:20:20;16.40;91.80
73572;DHT22;61854;48.510;-2.770;2023-06-04T07:22:46;16.40;91.70
73572;DHT22;61854;48.510;-2.770;2023-06-04T07:25:11;16.40;91.80
73572;DHT22;61854;48.510;-2.770;2023-06-04T07:27:37;16.40;91.70
73572;DHT22;61854;48.510;-2.770;2023-06-04T07:30:03;16.50;91.60
73572;DHT22;61854;48.510;-2.770;2023-06-04T07:32:28;16.50;91.50
73572;DHT22;61854;48.510;-2.770;2023-06-04T07:34:54;16.50;91.40
73572;DHT22;61854;48.510;-2.770;2023-06-04T07:37:19;16.60;91.50
73572;DHT22;61854;48.510;-2.770;2023-06-04T07:39:45;16.60;91.20
73572;DHT22;61854;48.510;-2.770;2023-06-04T07:42:10;16.60;90.90
73572;DHT22;61854;48.510;-2.770;2023-06-04T07:44:36;16.60;91.10
73572;DHT22;61854;48.510;-2.770;2023-06-04T07:47:02;16.70;91.20
73572;DHT22;61854;48.510;-2.770;2023-06-04T07:49:28;16.60;91.00
73572;DHT22;61854;48.510;-2.770;2023-06-04T07:51:53;16.60;91.30
73572;DHT22;61854;48.510;-2.770;2023-06-04T07:54:19;16.60;91.50
73572;DHT22;61854;48.510;-2.770;2023-06-04T07:56:45;16.70;91.10
73572;DHT22;61854;48.510;-2.770;2023-06-04T07:59:10;16.60;90.80
73572;DHT22;61854;48.510;-2.770;2023-06-04T08:01:36;16.60;90.70
73572;DHT22;61854;48.510;-2.770;2023-06-04T08:04:02;16.60;91.10
73572;DHT22;61854;48.510;-2.770;2023-06-04T08:06:27;16.60;90.60
73572;DHT22;61854;48.510;-2.770;2023-06-04T08:08:53;16.60;90.70
73572;DHT22;61854;48.510;-2.770;2023-06-04T08:11:18;16.60;90.80
73572;DHT22;61854;48.510;-2.770;2023-06-04T08:13:44;16.60;90.70
73572;DHT22;61854;48.510;-2.770;2023-06-04T08:16:10;16.60;90.80
73572;DHT22;61854;48.510;-2.770;2023-06-04T08:18:39;16.70;91.00
73572;DHT22;61854;48.510;-2.770;2023-06-04T08:21:05;16.70;90.90
73572;DHT22;61854;48.510;-2.770;2023-06-04T08:23:31;16.70;90.70
73572;DHT22;61854;48.510;-2.770;2023-06-04T08:25:57;16.80;90.60
73572;DHT22;61854;48.510;-2.770;2023-06-04T08:28:24;16.80;90.50
73572;DHT22;61854;48.510;-2.770;2023-06-04T08:30:49;16.80;90.50
73572;DHT22;61854;48.510;-2.770;2023-06-04T08:33:15;16.80;90.00
73572;DHT22;61854;48.510;-2.770;2023-06-04T08:35:40;16.80;90.10
73572;DHT22;61854;48.510;-2.770;2023-06-04T08:38:06;16.80;90.10
73572;DHT22;61854;48.510;-2.770;2023-06-04T08:40:32;16.80;89.90
73572;DHT22;61854;48.510;-2.770;2023-06-04T08:42:59;16.80;89.90
73572;DHT22;61854;48.510;-2.770;2023-06-04T08:45:25;16.80;90.00
73572;DHT22;61854;48.510;-2.770;2023-06-04T08:47:51;16.80;90.00
73572;DHT22;61854;48.510;-2.770;2023-06-04T08:50:17;16.80;89.70
73572;DHT22;61854;48.510;-2.770;2023-06-04T08:52:43;16.80;90.10
73572;DHT22;61854;48.510;-2.770;2023-06-04T08:55:10;16.80;90.60
73572;DHT22;61854;48.510;-2.770;2023-06-04T08:57:38;16.90;90.50
73572;DHT22;61854;48.510;-2.770;2023-06-04T09:00:04;16.90;90.20
73572;DHT22;61854;48.510;-2.770;2023-06-04T09:02:32;16.90;90.20
73572;DHT22;61854;48.510;-2.770;2023-06-04T09:04:57;16.90;90.20
73572;DHT22;61854;48.510;-2.770;2023-06-04T09:07:23;16.90;90.70
73572;DHT22;61854;48.510;-2.770;2023-06-04T09:09:49;17.00;90.10
73572;DHT22;61854;48.510;-2.770;2023-06-04T09:12:17;17.00;90.20
73572;DHT22;61854;48.510;-2.770;2023-06-04T09:14:44;17.00;90.50
73572;DHT22;61854;48.510;-2.770;2023-06-04T09:17:10;17.00;90.50
73572;DHT22;61854;48.510;-2.770;2023-06-04T09:19:35;17.00;90.20
73572;DHT22;61854;48.510;-2.770;2023-06-04T09:22:01;17.00;90.20
73572;DHT22;61854;48.510;-2.770;2023-06-04T09:24:38;17.10;90.30
73572;DHT22;61854;48.510;-2.770;2023-06-04T09:27:12;17.10;90.30
73572;DHT22;61854;48.510;-2.770;2023-06-04T09:29:38;17.10;89.70
73572;DHT22;61854;48.510;-2.770;2023-06-04T09:32:04;17.10;90.20
73572;DHT22;61854;48.510;-2.770;2023-06-04T09:34:30;17.20;89.70
73572;DHT22;61854;48.510;-2.770;2023-06-04T09:36:56;17.20;89.00
73572;DHT22;61854;48.510;-2.770;2023-06-04T09:39:22;17.20;88.80
73572;DHT22;61854;48.510;-2.770;2023-06-04T09:42:00;17.20;89.10
73572;DHT22;61854;48.510;-2.770;2023-06-04T09:44:27;17.30;89.10
73572;DHT22;61854;48.510;-2.770;2023-06-04T09:46:53;17.30;89.20
73572;DHT22;61854;48.510;-2.770;2023-06-04T09:49:18;17.30;89.00
73572;DHT22;61854;48.510;-2.770;2023-06-04T09:51:46;17.30;88.60
73572;DHT22;61854;48.510;-2.770;2023-06-04T09:54:12;17.30;88.40
73572;DHT22;61854;48.510;-2.770;2023-06-04T09:56:41;17.40;88.50
73572;DHT22;61854;48.510;-2.770;2023-06-04T09:59:08;17.40;87.50
73572;DHT22;61854;48.510;-2.770;2023-06-04T10:01:33;17.50;87.50
73572;DHT22;61854;48.510;-2.770;2023-06-04T10:04:02;17.40;87.80
73572;DHT22;61854;48.510;-2.770;2023-06-04T10:06:30;17.50;87.60
73572;DHT22;61854;48.510;-2.770;2023-06-04T10:08:58;17.50;87.50
73572;DHT22;61854;48.510;-2.770;2023-06-04T10:11:31;17.40;87.30
73572;DHT22;61854;48.510;-2.770;2023-06-04T10:16:43;17.50;87.70
73572;DHT22;61854;48.510;-2.770;2023-06-04T10:19:09;17.50;87.00
73572;DHT22;61854;48.510;-2.770;2023-06-04T10:21:34;17.50;88.10
73572;DHT22;61854;48.510;-2.770;2023-06-04T10:24:01;17.50;87.70
73572;DHT22;61854;48.510;-2.770;2023-06-04T10:26:27;17.60;87.50
73572;DHT22;61854;48.510;-2.770;2023-06-04T10:28:52;17.60;87.10
73572;DHT22;61854;48.510;-2.770;2023-06-04T10:31:18;17.60;87.40
73572;DHT22;61854;48.510;-2.770;2023-06-04T10:33:43;17.60;87.10
73572;DHT22;61854;48.510;-2.770;2023-06-04T10:36:19;17.60;87.00
73572;DHT22;61854;48.510;-2.770;2023-06-04T10:38:48;17.70;87.70
73572;DHT22;61854;48.510;-2.770;2023-06-04T10:41:14;17.70;87.30
73572;DHT22;61854;48.510;-2.770;2023-06-04T10:43:42;17.80;87.50
73572;DHT22;61854;48.510;-2.770;2023-06-04T10:46:13;17.80;87.80
73572;DHT22;61854;48.510;-2.770;2023-06-04T10:48:52;17.80;87.20
73572;DHT22;61854;48.510;-2.770;2023-06-04T10:51:33;17.90;86.40
73572;DHT22;61854;48.510;-2.770;2023-06-04T10:53:59;17.90;85.60
73572;DHT22;61854;48.510;-2.770;2023-06-04T10:56:25;17.80;85.90
73572;DHT22;61854;48.510;-2.770;2023-06-04T10:58:51;17.90;86.60
73572;DHT22;61854;48.510;-2.770;2023-06-04T11:01:24;17.90;85.80
73572;DHT22;61854;48.510;-2.770;2023-06-04T11:03:49;18.00;86.60
73572;DHT22;61854;48.510;-2.770;2023-06-04T11:06:15;18.10;84.50
73572;DHT22;61854;48.510;-2.770;2023-06-04T11:08:44;18.20;83.60
73572;DHT22;61854;48.510;-2.770;2023-06-04T11:11:10;18.20;82.70
73572;DHT22;61854;48.510;-2.770;2023-06-04T11:13:36;18.20;82.70
73572;DHT22;61854;48.510;-2.770;2023-06-04T11:16:02;18.30;82.70
73572;DHT22;61854;48.510;-2.770;2023-06-04T11:18:28;18.20;83.20
73572;DHT22;61854;48.510;-2.770;2023-06-04T11:21:00;18.20;82.70
73572;DHT22;61854;48.510;-2.770;2023-06-04T11:23:26;18.30;82.80
73572;DHT22;61854;48.510;-2.770;2023-06-04T11:25:52;18.30;83.30
73572;DHT22;61854;48.510;-2.770;2023-06-04T11:28:18;18.50;82.20
73572;DHT22;61854;48.510;-2.770;2023-06-04T11:30:44;18.50;81.60
73572;DHT22;61854;48.510;-2.770;2023-06-04T11:33:09;18.50;81.60
73572;DHT22;61854;48.510;-2.770;2023-06-04T11:35:41;18.50;80.90
73572;DHT22;61854;48.510;-2.770;2023-06-04T11:38:08;18.50;81.70
73572;DHT22;61854;48.510;-2.770;2023-06-04T11:40:33;18.50;81.60
73572;DHT22;61854;48.510;-2.770;2023-06-04T11:43:00;18.60;81.70
73572;DHT22;61854;48.510;-2.770;2023-06-04T11:45:25;18.60;80.90
73572;DHT22;61854;48.510;-2.770;2023-06-04T11:47:53;18.70;80.40
73572;DHT22;61854;48.510;-2.770;2023-06-04T11:50:19;18.80;80.00
73572;DHT22;61854;48.510;-2.770;2023-06-04T11:52:45;18.70;79.50
73572;DHT22;61854;48.510;-2.770;2023-06-04T11:55:12;18.80;79.30
73572;DHT22;61854;48.510;-2.770;2023-06-04T11:57:38;18.90;79.40
73572;DHT22;61854;48.510;-2.770;2023-06-04T12:00:04;18.90;79.40
73572;DHT22;61854;48.510;-2.770;2023-06-04T12:02:39;19.00;78.80
73572;DHT22;61854;48.510;-2.770;2023-06-04T12:05:13;19.10;78.00
73572;DHT22;61854;48.510;-2.770;2023-06-04T12:07:39;19.10;78.50
73572;DHT22;61854;48.510;-2.770;2023-06-04T12:10:07;19.10;77.90
73572;DHT22;61854;48.510;-2.770;2023-06-04T12:12:42;19.10;78.00
73572;DHT22;61854;48.510;-2.770;2023-06-04T12:15:08;19.20;78.60
73572;DHT22;61854;48.510;-2.770;2023-06-04T12:17:35;19.30;77.70
73572;DHT22;61854;48.510;-2.770;2023-06-04T12:20:01;19.40;77.10
73572;DHT22;61854;48.510;-2.770;2023-06-04T12:22:26;19.50;76.80
73572;DHT22;61854;48.510;-2.770;2023-06-04T12:24:53;19.50;76.90
73572;DHT22;61854;48.510;-2.770;2023-06-04T12:27:19;19.50;75.50
73572;DHT22;61854;48.510;-2.770;2023-06-04T12:32:24;19.70;75.70
73572;DHT22;61854;48.510;-2.770;2023-06-04T12:34:50;19.80;75.20
73572;DHT22;61854;48.510;-2.770;2023-06-04T12:37:15;20.00;74.50
73572;DHT22;61854;48.510;-2.770;2023-06-04T12:39:41;20.10;73.90
73572;DHT22;61854;48.510;-2.770;2023-06-04T12:42:08;20.20;72.70
73572;DHT22;61854;48.510;-2.770;2023-06-04T12:44:40;20.30;71.80
73572;DHT22;61854;48.510;-2.770;2023-06-04T12:47:06;20.40;71.90
73572;DHT22;61854;48.510;-2.770;2023-06-04T12:49:31;20.50;71.60
73572;DHT22;61854;48.510;-2.770;2023-06-04T12:51:57;20.70;71.30
73572;DHT22;61854;48.510;-2.770;2023-06-04T12:54:22;20.80;70.60
73572;DHT22;61854;48.510;-2.770;2023-06-04T12:56:50;21.00;70.60
73572;DHT22;61854;48.510;-2.770;2023-06-04T12:59:16;21.20;70.20
73572;DHT22;61854;48.510;-2.770;2023-06-04T13:01:42;21.70;67.90
73572;DHT22;61854;48.510;-2.770;2023-06-04T13:04:07;22.00;67.20
73572;DHT22;61854;48.510;-2.770;2023-06-04T13:06:33;22.30;64.80
73572;DHT22;61854;48.510;-2.770;2023-06-04T13:08:59;22.50;63.10
73572;DHT22;61854;48.510;-2.770;2023-06-04T13:11:25;22.70;62.10
73572;DHT22;61854;48.510;-2.770;2023-06-04T13:13:50;22.90;61.30
73572;DHT22;61854;48.510;-2.770;2023-06-04T13:16:16;23.10;60.20
73572;DHT22;61854;48.510;-2.770;2023-06-04T13:18:42;23.10;59.30
73572;DHT22;61854;48.510;-2.770;2023-06-04T13:21:07;23.10;59.90
73572;DHT22;61854;48.510;-2.770;2023-06-04T13:23:33;23.30;59.00
73572;DHT22;61854;48.510;-2.770;2023-06-04T13:25:58;23.50;58.00
73572;DHT22;61854;48.510;-2.770;2023-06-04T13:28:24;23.80;57.30
73572;DHT22;61854;48.510;-2.770;2023-06-04T13:30:49;24.00;56.80
73572;DHT22;61854;48.510;-2.770;2023-06-04T13:33:15;24.30;55.50
73572;DHT22;61854;48.510;-2.770;2023-06-04T13:35:41;24.40;54.10
73572;DHT22;61854;48.510;-2.770;2023-06-04T13:38:07;24.50;53.60
73572;DHT22;61854;48.510;-2.770;2023-06-04T13:40:36;24.50;53.80
73572;DHT22;61854;48.510;-2.770;2023-06-04T13:43:01;24.70;53.60
73572;DHT22;61854;48.510;-2.770;2023-06-04T13:45:27;24.80;52.40
73572;DHT22;61854;48.510;-2.770;2023-06-04T13:47:53;25.00;52.10
73572;DHT22;61854;48.510;-2.770;2023-06-04T13:50:18;25.30;51.50
73572;DHT22;61854;48.510;-2.770;2023-06-04T13:52:44;25.40;50.60
73572;DHT22;61854;48.510;-2.770;2023-06-04T13:55:11;25.60;50.60
73572;DHT22;61854;48.510;-2.770;2023-06-04T13:57:37;25.70;49.30
73572;DHT22;61854;48.510;-2.770;2023-06-04T14:00:02;25.80;48.50
73572;DHT22;61854;48.510;-2.770;2023-06-04T14:02:28;25.80;48.30
73572;DHT22;61854;48.510;-2.770;2023-06-04T14:04:53;26.00;47.70
73572;DHT22;61854;48.510;-2.770;2023-06-04T14:07:20;25.90;47.30
73572;DHT22;61854;48.510;-2.770;2023-06-04T14:09:45;25.80;47.30
73572;DHT22;61854;48.510;-2.770;2023-06-04T14:12:11;25.90;47.60
73572;DHT22;61854;48.510;-2.770;2023-06-04T14:14:37;26.20;46.70
73572;DHT22;61854;48.510;-2.770;2023-06-04T14:17:03;26.10;46.30
73572;DHT22;61854;48.510;-2.770;2023-06-04T14:19:28;25.90;47.00
73572;DHT22;61854;48.510;-2.770;2023-06-04T14:21:54;25.90;46.90
73572;DHT22;61854;48.510;-2.770;2023-06-04T14:24:20;26.20;46.10
73572;DHT22;61854;48.510;-2.770;2023-06-04T14:26:45;26.30;45.10
73572;DHT22;61854;48.510;-2.770;2023-06-04T14:29:11;26.40;45.70
73572;DHT22;61854;48.510;-2.770;2023-06-04T14:31:36;26.60;45.20
73572;DHT22;61854;48.510;-2.770;2023-06-04T14:34:02;26.60;44.30
73572;DHT22;61854;48.510;-2.770;2023-06-04T14:36:28;26.70;44.40
73572;DHT22;61854;48.510;-2.770;2023-06-04T14:38:53;26.80;43.70
73572;DHT22;61854;48.510;-2.770;2023-06-04T14:41:19;26.80;44.00
73572;DHT22;61854;48.510;-2.770;2023-06-04T14:43:44;27.10;43.10
73572;DHT22;61854;48.510;-2.770;2023-06-04T14:46:10;27.10;43.00
73572;DHT22;61854;48.510;-2.770;2023-06-04T14:48:36;27.00;43.00
73572;DHT22;61854;48.510;-2.770;2023-06-04T14:51:01;27.00;43.10
73572;DHT22;61854;48.510;-2.770;2023-06-04T14:53:27;27.00;42.80
73572;DHT22;61854;48.510;-2.770;2023-06-04T14:55:52;27.00;43.00
73572;DHT22;61854;48.510;-2.770;2023-06-04T14:58:18;27.00;42.50
73572;DHT22;61854;48.510;-2.770;2023-06-04T15:00:43;27.10;43.80
73572;DHT22;61854;48.510;-2.770;2023-06-04T15:03:09;27.40;42.10
73572;DHT22;61854;48.510;-2.770;2023-06-04T15:05:35;27.50;41.30
73572;DHT22;61854;48.510;-2.770;2023-06-04T15:08:01;27.50;41.30
73572;DHT22;61854;48.510;-2.770;2023-06-04T15:10:27;27.60;41.10
73572;DHT22;61854;48.510;-2.770;2023-06-04T15:12:55;27.70;40.80
73572;DHT22;61854;48.510;-2.770;2023-06-04T15:15:21;27.80;40.40
73572;DHT22;61854;48.510;-2.770;2023-06-04T15:17:47;27.80;40.00